sensor_id;sensor_type;location;lat;lon;timestamp;temperature;humidity
14786;DHT22;7484;49.906;9.058;2022-08-19T00:00:21;21.40;99.90
14786;DHT22;7484;49.906;9.058;2022-08-19T00:02:48;21.40;99.90
14786;DHT22;7484;49.906;9.058;2022-08-19T00:05:15;21.30;99.90
14786;DHT22;7484;49.906;9.058;2022-08-19T00:07:43;21.20;99.90
14786;DHT22;7484;49.906;9.058;2022-08-19T00:10:11;21.30;99.90
14786;DHT22;7484;49.906;9.058;2022-08-19T00:12:38;21.20;99.90
14786;DHT22;7484;49.906;9.058;2022-08-19T00:15:08;21.10;99.90
14786;DHT22;7484;49.906;9.058;2022-08-19T00:17:37;21.20;99.90
14786;DHT22;7484;49.906;9.058;2022-08-19T00:20:05;21.30;99.90
14786;DHT22;7484;49.906;9.058;2022-08-19T00:22:32;21.20;99.90
14786;DHT22;7484;49.906;9.058;2022-08-19T00:24:59;21.30;99.90
14786;DHT22;7484;49.906;9.058;2022-08-19T00:27:26;21.20;99.90
14786;DHT22;7484;49.906;9.058;2022-08-19T00:29:53;21.20;99.90
14786;DHT22;7484;49.906;9.058;2022-08-19T00:32:21;21.30;99.90
14786;DHT22;7484;49.906;9.058;2022-08-19T00:34:48;21.30;99.90
14786;DHT22;7484;49.906;9.058;2022-08-19T00:37:16;21.40;99.90
14786;DHT22;7484;49.906;9.058;2022-08-19T00:39:43;21.50;99.90
14786;DHT22;7484;49.906;9.058;2022-08-19T00:42:10;21.40;99.90
14786;DHT22;7484;49.906;9.058;2022-08-19T00:44:38;21.40;99.90
14786;DHT22;7484;49.906;9.058;2022-08-19T00:47:05;21.30;99.90
14786;DHT22;7484;49.906;9.058;2022-08-19T00:49:38;21.40;99.90
14786;DHT22;7484;49.906;9.058;2022-08-19T00:52:08;21.40;99.90
14786;DHT22;7484;49.906;9.058;2022-08-19T00:54:36;21.40;99.90
14786;DHT22;7484;49.906;9.058;2022-08-19T00:57:07;21.40;99.90
14786;DHT22;7484;49.906;9.058;2022-08-19T00:59:37;21.30;99.90
14786;DHT22;7484;49.906;9.058;2022-08-19T01:02:05;21.30;99.90
14786;DHT22;7484;49.906;9.058;2022-08-19T01:04:33;21.30;99.90
14786;DHT22;7484;49.906;9.058;2022-08-19T01:07:01;21.30;99.90
14786;DHT22;7484;49.906;9.058;2022-08-19T01:09:29;21.30;99.90
14786;DHT22;7484;49.906;9.058;2022-08-19T01:11:57;21.40;99.90
14786;DHT22;7484;49.906;9.058;2022-08-19T01:14:25;21.40;99.90
14786;DHT22;7484;49.906;9.058;2022-08-19T01:16:53;21.40;99.90
14786;DHT22;7484;49.906;9.058;2022-08-19T01:19:27;21.40;99.90
14786;DHT22;7484;49.906;9.058;2022-08-19T01:22:01;21.30;99.90
14786;DHT22;7484;49.906;9.058;2022-08-19T01:24:29;21.30;99.90
14786;DHT22;7484;49.906;9.058;2022-08-19T01:26:56;21.30;99.90
14786;DHT22;7484;49.906;9.058;2022-08-19T01:29:23;21.30;99.90
14786;DHT22;7484;49.906;9.058;2022-08-19T01:31:50;21.30;99.90
14786;DHT22;7484;49.906;9.058;2022-08-19T01:34:18;21.30;99.90
14786;DHT22;7484;49.906;9.058;2022-08-19T01:36:46;21.30;99.90
14786;DHT22;7484;49.906;9.058;2022-08-19T01:39:17;21.30;99.90
14786;DHT22;7484;49.906;9.058;2022-08-19T01:41:46;21.20;99.90
14786;DHT22;7484;49.906;9.058;2022-08-19T01:44:13;21.30;99.90
14786;DHT22;7484;49.906;9.058;2022-08-19T01:46:41;21.30;99.90
14786;DHT22;7484;49.906;9.058;2022-08-19T01:49:09;21.30;99.90
14786;DHT22;7484;49.906;9.058;2022-08-19T01:51:37;21.30;99.90
14786;DHT22;7484;49.906;9.058;2022-08-19T01:54:04;21.30;99.90
14786;DHT22;7484;49.906;9.058;2022-08-19T01:56:30;21.30;99.90
14786;DHT22;7484;49.906;9.058;2022-08-19T01:59:03;21.20;99.90
14786;DHT22;7484;49.906;9.058;2022-08-19T02:01:31;21.00;99.90
14786;DHT22;7484;49.906;9.058;2022-08-19T02:03:58;20.90;99.90
14786;DHT22;7484;49.906;9.058;2022-08-19T02:06:26;20.80;99.90
14786;DHT22;7484;49.906;9.058;2022-08-19T02:08:52;20.90;99.90
14786;DHT22;7484;49.906;9.058;2022-08-19T02:11:21;21.00;99.90
14786;DHT22;7484;49.906;9.058;2022-08-19T02:13:48;21.00;99.90
14786;DHT22;7484;49.906;9.058;2022-08-19T02:16:17;21.00;99.90
14786;DHT22;7484;49.906;9.058;2022-08-19T02:18:44;21.10;99.90
14786;DHT22;7484;49.906;9.058;2022-08-19T02:21:14;21.20;99.90
14786;DHT22;7484;49.906;9.058;2022-08-19T02:23:41;21.30;99.90
14786;DHT22;7484;49.906;9.058;2022-08-19T02:26:08;21.40;99.90
14786;DHT22;7484;49.906;9.058;2022-08-19T02:28:35;21.50;99.90
14786;DHT22;7484;49.906;9.058;2022-08-19T02:31:03;21.40;99.90
14786;DHT22;7484;49.906;9.058;2022-08-19T02:33:31;21.40;99.90
14786;DHT22;7484;49.906;9.058;2022-08-19T02:35:57;21.50;99.90
14786;DHT22;7484;49.906;9.058;2022-08-19T02:38:24;21.50;99.90
14786;DHT22;7484;49.906;9.058;2022-08-19T02:40:55;21.40;99.90
14786;DHT22;7484;49.906;9.058;2022-08-19T02:43:23;21.40;99.90
14786;DHT22;7484;49.906;9.058;2022-08-19T02:45:51;21.20;99.90
14786;DHT22;7484;49.906;9.058;2022-08-19T02:48:19;21.00;99.90
14786;DHT22;7484;49.906;9.058;2022-08-19T02:50:49;20.80;99.90
14786;DHT22;7484;49.906;9.058;2022-08-19T02:53:20;20.70;99.90
14786;DHT22;7484;49.906;9.058;2022-08-19T02:55:48;20.70;99.90
14786;DHT22;7484;49.906;9.058;2022-08-19T02:58:15;20.70;99.90
14786;DHT22;7484;49.906;9.058;2022-08-19T03:00:44;20.70;99.90
14786;DHT22;7484;49.906;9.058;2022-08-19T03:03:12;20.70;99.90
14786;DHT22;7484;49.906;9.058;2022-08-19T03:05:39;20.60;99.90
14786;DHT22;7484;49.906;9.058;2022-08-19T03:08:07;20.50;99.90
14786;DHT22;7484;49.906;9.058;2022-08-19T03:10:41;20.50;99.90
14786;DHT22;7484;49.906;9.058;2022-08-19T03:13:11;20.50;99.90
14786;DHT22;7484;49.906;9.058;2022-08-19T03:15:40;20.50;99.90
14786;DHT22;7484;49.906;9.058;2022-08-19T03:18:07;20.50;99.90
14786;DHT22;7484;49.906;9.058;2022-08-19T03:20:40;20.60;99.90
14786;DHT22;7484;49.906;9.058;2022-08-19T03:23:08;20.70;99.90
14786;DHT22;7484;49.906;9.058;2022-08-19T03:25:37;20.60;99.90
14786;DHT22;7484;49.906;9.058;2022-08-19T03:28:04;20.70;99.90
14786;DHT22;7484;49.906;9.058;2022-08-19T03:30:30;20.70;99.90
14786;DHT22;7484;49.906;9.058;2022-08-19T03:32:57;20.80;99.90
14786;DHT22;7484;49.906;9.058;2022-08-19T03:35:24;20.80;99.90
14786;DHT22;7484;49.906;9.058;2022-08-19T03:37:51;20.70;99.90
14786;DHT22;7484;49.906;9.058;2022-08-19T03:40:19;20.60;99.90
14786;DHT22;7484;49.906;9.058;2022-08-19T03:42:46;20.50;99.90
14786;DHT22;7484;49.906;9.058;2022-08-19T03:45:13;20.50;99.90
14786;DHT22;7484;49.906;9.058;2022-08-19T03:47:39;20.50;99.90
14786;DHT22;7484;49.906;9.058;2022-08-19T03:50:07;20.50;99.90
14786;DHT22;7484;49.906;9.058;2022-08-19T03:52:34;20.60;99.90
14786;DHT22;7484;49.906;9.058;2022-08-19T03:55:03;20.60;99.90
14786;DHT22;7484;49.906;9.058;2022-08-19T03:57:31;20.60;99.90
14786;DHT22;7484;49.906;9.058;2022-08-19T03:59:59;20.60;99.90
14786;DHT22;7484;49.906;9.058;2022-08-19T04:02:26;20.70;99.90
14786;DHT22;7484;49.906;9.058;2022-08-19T04:04:53;20.70;99.90
14786;DHT22;7484;49.906;9.058;2022-08-19T04:07:20;20.70;99.90
14786;DHT22;7484;49.906;9.058;2022-08-19T04:09:47;20.80;99.90
14786;DHT22;7484;49.906;9.058;2022-08-19T04:12:14;20.80;99.90
14786;DHT22;7484;49.906;9.058;2022-08-19T04:14:43;20.80;99.90
14786;DHT22;7484;49.906;9.058;2022-08-19T04:17:09;20.80;99.90
14786;DHT22;7484;49.906;9.058;2022-08-19T04:19:38;20.80;99.90
14786;DHT22;7484;49.906;9.058;2022-08-19T04:22:05;20.80;99.90
14786;DHT22;7484;49.906;9.058;2022-08-19T04:24:34;20.80;99.90
14786;DHT22;7484;49.906;9.058;2022-08-19T04:27:01;20.80;99.90
14786;DHT22;7484;49.906;9.058;2022-08-19T04:29:29;20.70;99.90
14786;DHT22;7484;49.906;9.058;2022-08-19T04:31:58;20.70;99.90
14786;DHT22;7484;49.906;9.058;2022-08-19T04:34:27;20.70;99.90
14786;DHT22;7484;49.906;9.058;2022-08-19T04:36:56;20.80;99.90
14786;DHT22;7484;49.906;9.058;2022-08-19T04:39:27;20.80;99.90
14786;DHT22;7484;49.906;9.058;2022-08-19T04:42:08;20.80;99.90
14786;DHT22;7484;49.906;9.058;2022-08-19T04:44:53;20.80;99.90
14786;DHT22;7484;49.906;9.058;2022-08-19T04:47:21;20.80;99.90
14786;DHT22;7484;49.906;9.058;2022-08-19T04:49:47;20.90;99.90
14786;DHT22;7484;49.906;9.058;2022-08-19T04:52:14;20.90;99.90
14786;DHT22;7484;49.906;9.058;2022-08-19T04:54:41;21.00;99.90
14786;DHT22;7484;49.906;9.058;2022-08-19T04:57:08;21.00;99.90
14786;DHT22;7484;49.906;9.058;2022-08-19T04:59:35;21.00;99.90
14786;DHT22;7484;49.906;9.058;2022-08-19T05:02:03;21.00;99.90
14786;DHT22;7484;49.906;9.058;2022-08-19T05:04:32;21.10;99.90
14786;DHT22;7484;49.906;9.058;2022-08-19T05:06:59;21.10;99.90
14786;DHT22;7484;49.906;9.058;2022-08-19T05:09:27;21.20;99.90
14786;DHT22;7484;49.906;9.058;2022-08-19T05:11:55;21.20;99.90
14786;DHT22;7484;49.906;9.058;2022-08-19T05:14:21;21.10;99.90
14786;DHT22;7484;49.906;9.058;2022-08-19T05:16:48;21.10;99.90
14786;DHT22;7484;49.906;9.058;2022-08-19T05:19:15;21.10;99.90
14786;DHT22;7484;49.906;9.058;2022-08-19T05:22:00;21.20;99.90
14786;DHT22;7484;49.906;9.058;2022-08-19T05:24:45;21.20;99.90
14786;DHT22;7484;49.906;9.058;2022-08-19T05:27:12;21.20;99.90
14786;DHT22;7484;49.906;9.058;2022-08-19T05:29:39;21.20;99.90
14786;DHT22;7484;49.906;9.058;2022-08-19T05:32:06;21.20;99.90
14786;DHT22;7484;49.906;9.058;2022-08-19T05:34:34;21.20;99.90
14786;DHT22;7484;49.906;9.058;2022-08-19T05:37:05;21.20;99.90
14786;DHT22;7484;49.906;9.058;2022-08-19T05:39:34;21.10;99.90
14786;DHT22;7484;49.906;9.058;2022-08-19T05:42:03;21.00;99.90
14786;DHT22;7484;49.906;9.058;2022-08-19T05:44:33;21.00;99.90
14786;DHT22;7484;49.906;9.058;2022-08-19T05:47:01;21.00;99.90
14786;DHT22;7484;49.906;9.058;2022-08-19T05:49:30;21.00;99.90
14786;DHT22;7484;49.906;9.058;2022-08-19T05:51:57;20.90;99.90
14786;DHT22;7484;49.906;9.058;2022-08-19T05:54:26;21.00;99.90
14786;DHT22;7484;49.906;9.058;2022-08-19T05:56:53;21.00;99.90
14786;DHT22;7484;49.906;9.058;2022-08-19T05:59:21;21.00;99.90
14786;DHT22;7484;49.906;9.058;2022-08-19T06:01:50;21.00;99.90
14786;DHT22;7484;49.906;9.058;2022-08-19T06:04:18;21.00;99.90
14786;DHT22;7484;49.906;9.058;2022-08-19T06:06:45;21.10;99.90
14786;DHT22;7484;49.906;9.058;2022-08-19T06:09:12;21.10;99.90
14786;DHT22;7484;49.906;9.058;2022-08-19T06:11:42;21.10;99.90
14786;DHT22;7484;49.906;9.058;2022-08-19T06:14:12;21.10;99.90
14786;DHT22;7484;49.906;9.058;2022-08-19T06:16:41;21.10;99.90
14786;DHT22;7484;49.906;9.058;2022-08-19T06:19:10;21.20;99.90
14786;DHT22;7484;49.906;9.058;2022-08-19T06:21:40;21.20;99.90
14786;DHT22;7484;49.906;9.058;2022-08-19T06:24:10;21.30;99.90
14786;DHT22;7484;49.906;9.058;2022-08-19T06:26:39;21.30;99.90
14786;DHT22;7484;49.906;9.058;2022-08-19T06:29:08;21.30;99.90
14786;DHT22;7484;49.906;9.058;2022-08-19T06:31:36;21.30;99.90
14786;DHT22;7484;49.906;9.058;2022-08-19T06:34:05;21.40;99.90
14786;DHT22;7484;49.906;9.058;2022-08-19T06:36:34;21.50;99.90
14786;DHT22;7484;49.906;9.058;2022-08-19T06:39:03;21.50;99.90
14786;DHT22;7484;49.906;9.058;2022-08-19T06:41:33;21.50;99.90
14786;DHT22;7484;49.906;9.058;2022-08-19T06:44:00;21.60;99.90
14786;DHT22;7484;49.906;9.058;2022-08-19T06:46:29;21.60;99.90
14786;DHT22;7484;49.906;9.058;2022-08-19T06:48:56;21.60;99.90
14786;DHT22;7484;49.906;9.058;2022-08-19T06:51:24;21.70;99.90
14786;DHT22;7484;49.906;9.058;2022-08-19T06:53:52;21.70;99.90
14786;DHT22;7484;49.906;9.058;2022-08-19T06:56:21;21.70;99.90
14786;DHT22;7484;49.906;9.058;2022-08-19T06:58:48;21.80;99.90
14786;DHT22;7484;49.906;9.058;2022-08-19T07:01:17;21.80;99.90
14786;DHT22;7484;49.906;9.058;2022-08-19T07:03:46;21.80;99.90
14786;DHT22;7484;49.906;9.058;2022-08-19T07:06:15;21.90;99.90
14786;DHT22;7484;49.906;9.058;2022-08-19T07:08:43;21.80;99.90
14786;DHT22;7484;49.906;9.058;2022-08-19T07:11:13;21.80;99.90
14786;DHT22;7484;49.906;9.058;2022-08-19T07:13:41;21.80;99.90
14786;DHT22;7484;49.906;9.058;2022-08-19T07:16:12;21.70;99.90
14786;DHT22;7484;49.906;9.058;2022-08-19T07:18:39;21.80;99.90
14786;DHT22;7484;49.906;9.058;2022-08-19T07:21:10;21.90;99.90
14786;DHT22;7484;49.906;9.058;2022-08-19T07:23:37;21.90;99.90
14786;DHT22;7484;49.906;9.058;2022-08-19T07:26:06;22.00;99.90
14786;DHT22;7484;49.906;9.058;2022-08-19T07:28:33;22.10;99.90
14786;DHT22;7484;49.906;9.058;2022-08-19T07:31:00;22.20;99.90
14786;DHT22;7484;49.906;9.058;2022-08-19T07:33:28;22.20;99.90
14786;DHT22;7484;49.906;9.058;2022-08-19T07:35:58;22.30;99.90
14786;DHT22;7484;49.906;9.058;2022-08-19T07:38:26;22.30;99.90
14786;DHT22;7484;49.906;9.058;2022-08-19T07:40:52;22.30;99.90
14786;DHT22;7484;49.906;9.058;2022-08-19T07:43:19;22.40;99.90
14786;DHT22;7484;49.906;9.058;2022-08-19T07:45:52;22.50;99.90
14786;DHT22;7484;49.906;9.058;2022-08-19T07:48:21;22.50;99.90
14786;DHT22;7484;49.906;9.058;2022-08-19T07:50:51;22.50;99.90
14786;DHT22;7484;49.906;9.058;2022-08-19T07:53:17;22.60;99.90
14786;DHT22;7484;49.906;9.058;2022-08-19T07:55:46;22.60;99.90
14786;DHT22;7484;49.906;9.058;2022-08-19T07:58:18;22.60;99.90
14786;DHT22;7484;49.906;9.058;2022-08-19T08:00:47;22.70;99.90
14786;DHT22;7484;49.906;9.058;2022-08-19T08:03:16;22.70;99.90
14786;DHT22;7484;49.906;9.058;2022-08-19T08:05:44;22.70;99.90
14786;DHT22;7484;49.906;9.058;2022-08-19T08:08:39;22.70;99.90
14786;DHT22;7484;49.906;9.058;2022-08-19T08:11:25;22.70;99.90
14786;DHT22;7484;49.906;9.058;2022-08-19T08:13:52;22.80;99.90
14786;DHT22;7484;49.906;9.058;2022-08-19T08:16:18;23.00;99.90
14786;DHT22;7484;49.906;9.058;2022-08-19T08:18:46;23.00;99.90
14786;DHT22;7484;49.906;9.058;2022-08-19T08:21:12;23.10;99.90
14786;DHT22;7484;49.906;9.058;2022-08-19T08:23:39;23.30;99.90
14786;DHT22;7484;49.906;9.058;2022-08-19T08:26:06;23.40;99.90
14786;DHT22;7484;49.906;9.058;2022-08-19T08:28:34;23.60;99.90
14786;DHT22;7484;49.906;9.058;2022-08-19T08:31:03;23.60;99.90
14786;DHT22;7484;49.906;9.058;2022-08-19T08:33:30;23.70;99.90
14786;DHT22;7484;49.906;9.058;2022-08-19T08:35:56;23.90;99.90
14786;DHT22;7484;49.906;9.058;2022-08-19T08:38:23;24.00;99.90
14786;DHT22;7484;49.906;9.058;2022-08-19T08:40:53;24.20;99.90
14786;DHT22;7484;49.906;9.058;2022-08-19T08:43:27;24.30;99.90
14786;DHT22;7484;49.906;9.058;2022-08-19T08:46:00;24.40;99.90
14786;DHT22;7484;49.906;9.058;2022-08-19T08:48:36;24.40;99.90
14786;DHT22;7484;49.906;9.058;2022-08-19T08:51:06;24.50;99.90
14786;DHT22;7484;49.906;9.058;2022-08-19T08:53:34;24.60;99.90
14786;DHT22;7484;49.906;9.058;2022-08-19T08:56:03;24.80;99.90
14786;DHT22;7484;49.906;9.058;2022-08-19T08:58:39;24.90;99.90
14786;DHT22;7484;49.906;9.058;2022-08-19T09:01:11;25.00;99.90
14786;DHT22;7484;49.906;9.058;2022-08-19T09:03:42;25.20;99.90
14786;DHT22;7484;49.906;9.058;2022-08-19T09:06:18;25.30;99.90
14786;DHT22;7484;49.906;9.058;2022-08-19T09:08:59;25.30;99.90
14786;DHT22;7484;49.906;9.058;2022-08-19T09:11:47;25.30;99.90
14786;DHT22;7484;49.906;9.058;2022-08-19T09:14:21;25.30;99.90
14786;DHT22;7484;49.906;9.058;2022-08-19T09:16:50;25.50;99.90
14786;DHT22;7484;49.906;9.058;2022-08-19T09:19:17;25.70;99.90
14786;DHT22;7484;49.906;9.058;2022-08-19T09:21:44;25.80;99.90
14786;DHT22;7484;49.906;9.058;2022-08-19T09:24:11;25.80;99.90
14786;DHT22;7484;49.906;9.058;2022-08-19T09:26:38;26.00;99.90
14786;DHT22;7484;49.906;9.058;2022-08-19T09:29:05;26.20;99.90
14786;DHT22;7484;49.906;9.058;2022-08-19T09:31:32;26.20;99.90
14786;DHT22;7484;49.906;9.058;2022-08-19T09:34:00;26.10;99.90
14786;DHT22;7484;49.906;9.058;2022-08-19T09:36:30;26.00;99.90
14786;DHT22;7484;49.906;9.058;2022-08-19T09:38:59;26.00;99.90
14786;DHT22;7484;49.906;9.058;2022-08-19T09:41:26;25.90;99.90
14786;DHT22;7484;49.906;9.058;2022-08-19T09:43:55;26.00;99.90
14786;DHT22;7484;49.906;9.058;2022-08-19T09:46:23;26.00;99.90
14786;DHT22;7484;49.906;9.058;2022-08-19T09:48:50;26.10;99.90
14786;DHT22;7484;49.906;9.058;2022-08-19T09:51:21;26.20;99.90
14786;DHT22;7484;49.906;9.058;2022-08-19T09:53:49;26.40;99.90
14786;DHT22;7484;49.906;9.058;2022-08-19T09:56:17;26.40;99.90
14786;DHT22;7484;49.906;9.058;2022-08-19T09:58:45;26.50;99.90
14786;DHT22;7484;49.906;9.058;2022-08-19T10:01:17;26.60;99.90
14786;DHT22;7484;49.906;9.058;2022-08-19T10:03:47;26.70;99.90
14786;DHT22;7484;49.906;9.058;2022-08-19T10:06:15;26.90;99.90
14786;DHT22;7484;49.906;9.058;2022-08-19T10:08:43;27.00;99.90
14786;DHT22;7484;49.906;9.058;2022-08-19T10:11:10;27.00;99.90
14786;DHT22;7484;49.906;9.058;2022-08-19T10:13:38;26.90;99.90
14786;DHT22;7484;49.906;9.058;2022-08-19T10:16:07;27.00;99.90
14786;DHT22;7484;49.906;9.058;2022-08-19T10:18:35;27.10;99.90
14786;DHT22;7484;49.906;9.058;2022-08-19T10:21:05;27.10;99.90
14786;DHT22;7484;49.906;9.058;2022-08-19T10:23:35;27.50;99.90
14786;DHT22;7484;49.906;9.058;2022-08-19T10:26:03;27.80;99.80
14786;DHT22;7484;49.906;9.058;2022-08-19T10:28:32;28.00;99.20
14786;DHT22;7484;49.906;9.058;2022-08-19T10:31:03;28.00;99.10
14786;DHT22;7484;49.906;9.058;2022-08-19T10:33:32;28.20;98.90
14786;DHT22;7484;49.906;9.058;2022-08-19T10:36:00;28.30;98.30
14786;DHT22;7484;49.906;9.058;2022-08-19T10:38:27;28.30;98.30
14786;DHT22;7484;49.906;9.058;2022-08-19T10:40:55;28.30;98.10
14786;DHT22;7484;49.906;9.058;2022-08-19T10:43:23;28.20;97.60
14786;DHT22;7484;49.906;9.058;2022-08-19T10:45:54;28.20;97.90
14786;DHT22;7484;49.906;9.058;2022-08-19T10:48:24;28.30;97.00
14786;DHT22;7484;49.906;9.058;2022-08-19T10:50:51;28.30;97.00
14786;DHT22;7484;49.906;9.058;2022-08-19T10:53:35;28.40;96.70
14786;DHT22;7484;49.906;9.058;2022-08-19T10:56:02;28.20;96.50
14786;DHT22;7484;49.906;9.058;2022-08-19T10:58:48;27.90;97.40
14786;DHT22;7484;49.906;9.058;2022-08-19T11:01:15;27.90;97.70
14786;DHT22;7484;49.906;9.058;2022-08-19T11:03:42;28.30;97.40
14786;DHT22;7484;49.906;9.058;2022-08-19T11:06:11;28.40;97.30
14786;DHT22;7484;49.906;9.058;2022-08-19T11:08:38;28.40;97.20
14786;DHT22;7484;49.906;9.058;2022-08-19T11:11:07;28.10;96.70
14786;DHT22;7484;49.906;9.058;2022-08-19T11:13:36;28.30;96.70
14786;DHT22;7484;49.906;9.058;2022-08-19T11:16:08;28.50;96.60
14786;DHT22;7484;49.906;9.058;2022-08-19T11:18:37;28.70;96.30
14786;DHT22;7484;49.906;9.058;2022-08-19T11:21:06;29.10;95.90
14786;DHT22;7484;49.906;9.058;2022-08-19T11:23:33;29.10;95.60
14786;DHT22;7484;49.906;9.058;2022-08-19T11:26:00;28.80;95.70
14786;DHT22;7484;49.906;9.058;2022-08-19T11:28:27;28.70;96.00
14786;DHT22;7484;49.906;9.058;2022-08-19T11:30:54;28.60;95.90
14786;DHT22;7484;49.906;9.058;2022-08-19T11:33:22;28.80;95.90
14786;DHT22;7484;49.906;9.058;2022-08-19T11:35:52;29.00;95.20
14786;DHT22;7484;49.906;9.058;2022-08-19T11:38:18;29.30;95.20
14786;DHT22;7484;49.906;9.058;2022-08-19T11:40:45;29.00;95.20
14786;DHT22;7484;49.906;9.058;2022-08-19T11:43:19;28.80;95.40
14786;DHT22;7484;49.906;9.058;2022-08-19T11:45:46;28.70;95.90
14786;DHT22;7484;49.906;9.058;2022-08-19T11:48:14;28.60;96.00
14786;DHT22;7484;49.906;9.058;2022-08-19T11:50:42;28.50;95.80
14786;DHT22;7484;49.906;9.058;2022-08-19T11:53:09;28.40;95.10
14786;DHT22;7484;49.906;9.058;2022-08-19T11:55:37;28.20;95.10
14786;DHT22;7484;49.906;9.058;2022-08-19T11:58:04;28.20;95.80
14786;DHT22;7484;49.906;9.058;2022-08-19T12:00:32;28.10;96.00
14786;DHT22;7484;49.906;9.058;2022-08-19T12:02:59;28.10;95.90
14786;DHT22;7484;49.906;9.058;2022-08-19T12:05:26;28.00;96.10
14786;DHT22;7484;49.906;9.058;2022-08-19T12:07:54;28.00;96.10
14786;DHT22;7484;49.906;9.058;2022-08-19T12:10:21;27.90;96.10
14786;DHT22;7484;49.906;9.058;2022-08-19T12:12:48;28.00;95.30
14786;DHT22;7484;49.906;9.058;2022-08-19T12:15:15;27.90;95.10
14786;DHT22;7484;49.906;9.058;2022-08-19T12:17:43;28.00;95.00
14786;DHT22;7484;49.906;9.058;2022-08-19T12:20:11;28.10;95.40
14786;DHT22;7484;49.906;9.058;2022-08-19T12:22:41;28.30;94.90
14786;DHT22;7484;49.906;9.058;2022-08-19T12:25:10;28.20;95.00
14786;DHT22;7484;49.906;9.058;2022-08-19T12:27:38;28.10;94.90
14786;DHT22;7484;49.906;9.058;2022-08-19T12:30:08;28.20;95.00
14786;DHT22;7484;49.906;9.058;2022-08-19T12:32:35;28.20;94.90
14786;DHT22;7484;49.906;9.058;2022-08-19T12:35:03;28.60;94.40
14786;DHT22;7484;49.906;9.058;2022-08-19T12:37:30;28.90;93.90
14786;DHT22;7484;49.906;9.058;2022-08-19T12:39:57;28.70;93.90
14786;DHT22;7484;49.906;9.058;2022-08-19T12:42:26;28.30;93.70
14786;DHT22;7484;49.906;9.058;2022-08-19T12:44:53;28.10;94.30
14786;DHT22;7484;49.906;9.058;2022-08-19T12:47:20;28.10;94.10
14786;DHT22;7484;49.906;9.058;2022-08-19T12:49:48;28.00;93.30
14786;DHT22;7484;49.906;9.058;2022-08-19T12:52:15;27.90;93.90
14786;DHT22;7484;49.906;9.058;2022-08-19T12:54:42;27.90;93.80
14786;DHT22;7484;49.906;9.058;2022-08-19T12:57:10;27.90;93.70
14786;DHT22;7484;49.906;9.058;2022-08-19T12:59:39;27.90;93.60
14786;DHT22;7484;49.906;9.058;2022-08-19T13:02:07;27.80;93.40
14786;DHT22;7484;49.906;9.058;2022-08-19T13:04:35;27.80;93.80
14786;DHT22;7484;49.906;9.058;2022-08-19T13:07:06;27.80;93.70
14786;DHT22;7484;49.906;9.058;2022-08-19T13:09:34;27.90;93.60
14786;DHT22;7484;49.906;9.058;2022-08-19T13:12:01;27.90;93.60
14786;DHT22;7484;49.906;9.058;2022-08-19T13:14:32;28.00;93.70
14786;DHT22;7484;49.906;9.058;2022-08-19T13:17:01;28.00;93.70
14786;DHT22;7484;49.906;9.058;2022-08-19T13:19:27;28.10;93.60
14786;DHT22;7484;49.906;9.058;2022-08-19T13:21:55;28.10;93.40
14786;DHT22;7484;49.906;9.058;2022-08-19T13:24:23;28.10;92.80
14786;DHT22;7484;49.906;9.058;2022-08-19T13:26:50;28.00;91.70
14786;DHT22;7484;49.906;9.058;2022-08-19T13:29:16;27.90;92.10
14786;DHT22;7484;49.906;9.058;2022-08-19T13:32:03;27.90;92.40
14786;DHT22;7484;49.906;9.058;2022-08-19T13:34:47;27.90;92.10
14786;DHT22;7484;49.906;9.058;2022-08-19T13:37:14;28.00;92.00
14786;DHT22;7484;49.906;9.058;2022-08-19T13:39:40;28.00;91.80
14786;DHT22;7484;49.906;9.058;2022-08-19T13:42:07;28.00;92.00
14786;DHT22;7484;49.906;9.058;2022-08-19T13:44:34;28.10;92.20
14786;DHT22;7484;49.906;9.058;2022-08-19T13:47:04;28.20;92.10
14786;DHT22;7484;49.906;9.058;2022-08-19T13:49:32;28.20;91.60
14786;DHT22;7484;49.906;9.058;2022-08-19T13:51:59;28.10;91.80
14786;DHT22;7484;49.906;9.058;2022-08-19T13:54:26;28.20;91.80
14786;DHT22;7484;49.906;9.058;2022-08-19T13:56:53;28.30;91.30
14786;DHT22;7484;49.906;9.058;2022-08-19T13:59:20;28.30;91.40
14786;DHT22;7484;49.906;9.058;2022-08-19T14:01:47;28.40;90.50
14786;DHT22;7484;49.906;9.058;2022-08-19T14:04:15;28.60;90.10
14786;DHT22;7484;49.906;9.058;2022-08-19T14:06:41;28.70;89.80
14786;DHT22;7484;49.906;9.058;2022-08-19T14:09:08;29.00;89.10
14786;DHT22;7484;49.906;9.058;2022-08-19T14:11:35;29.30;88.30
14786;DHT22;7484;49.906;9.058;2022-08-19T14:14:02;29.50;86.40
14786;DHT22;7484;49.906;9.058;2022-08-19T14:16:29;29.50;86.60
14786;DHT22;7484;49.906;9.058;2022-08-19T14:18:56;29.40;85.40
14786;DHT22;7484;49.906;9.058;2022-08-19T14:21:25;29.10;85.40
14786;DHT22;7484;49.906;9.058;2022-08-19T14:23:52;28.90;86.50
14786;DHT22;7484;49.906;9.058;2022-08-19T14:26:20;28.90;86.80
14786;DHT22;7484;49.906;9.058;2022-08-19T14:28:47;28.90;86.50
14786;DHT22;7484;49.906;9.058;2022-08-19T14:31:16;29.00;87.80
14786;DHT22;7484;49.906;9.058;2022-08-19T14:33:45;29.00;86.00
14786;DHT22;7484;49.906;9.058;2022-08-19T14:36:12;29.20;85.60
14786;DHT22;7484;49.906;9.058;2022-08-19T14:38:40;29.50;85.10
14786;DHT22;7484;49.906;9.058;2022-08-19T14:41:12;30.00;82.30
14786;DHT22;7484;49.906;9.058;2022-08-19T14:43:41;30.40;82.10
14786;DHT22;7484;49.906;9.058;2022-08-19T14:46:08;30.90;82.40
14786;DHT22;7484;49.906;9.058;2022-08-19T14:48:35;31.10;79.80
14786;DHT22;7484;49.906;9.058;2022-08-19T14:51:04;31.30;77.10
14786;DHT22;7484;49.906;9.058;2022-08-19T14:53:31;31.30;77.40
14786;DHT22;7484;49.906;9.058;2022-08-19T14:56:01;31.20;76.90
14786;DHT22;7484;49.906;9.058;2022-08-19T14:58:33;30.90;77.90
14786;DHT22;7484;49.906;9.058;2022-08-19T15:01:00;30.50;77.70
14786;DHT22;7484;49.906;9.058;2022-08-19T15:03:29;30.30;78.00
14786;DHT22;7484;49.906;9.058;2022-08-19T15:05:57;30.30;78.70
14786;DHT22;7484;49.906;9.058;2022-08-19T15:08:27;30.50;78.30
14786;DHT22;7484;49.906;9.058;2022-08-19T15:10:54;30.30;77.90
14786;DHT22;7484;49.906;9.058;2022-08-19T15:13:23;30.20;78.50
14786;DHT22;7484;49.906;9.058;2022-08-19T15:15:50;29.90;78.30
14786;DHT22;7484;49.906;9.058;2022-08-19T15:18:18;29.70;78.90
14786;DHT22;7484;49.906;9.058;2022-08-19T15:20:46;29.50;79.70
14786;DHT22;7484;49.906;9.058;2022-08-19T15:23:13;29.30;79.70
14786;DHT22;7484;49.906;9.058;2022-08-19T15:25:40;29.10;80.10
14786;DHT22;7484;49.906;9.058;2022-08-19T15:28:07;29.00;79.80
14786;DHT22;7484;49.906;9.058;2022-08-19T15:30:39;28.90;80.70
14786;DHT22;7484;49.906;9.058;2022-08-19T15:33:06;28.80;80.50
14786;DHT22;7484;49.906;9.058;2022-08-19T15:35:33;28.70;81.20
14786;DHT22;7484;49.906;9.058;2022-08-19T15:38:00;28.70;80.90
14786;DHT22;7484;49.906;9.058;2022-08-19T15:40:27;28.70;80.10
14786;DHT22;7484;49.906;9.058;2022-08-19T15:42:55;28.70;81.10
14786;DHT22;7484;49.906;9.058;2022-08-19T15:45:23;28.80;80.50
14786;DHT22;7484;49.906;9.058;2022-08-19T15:47:55;28.80;80.20
14786;DHT22;7484;49.906;9.058;2022-08-19T15:50:22;28.80;80.30
14786;DHT22;7484;49.906;9.058;2022-08-19T15:52:52;28.90;81.10